createdAt,value
2018-06-09T00:00:36.007Z,0.73
2018-06-09T00:03:03.532Z,0.80
2018-06-09T00:05:31.604Z,0.80
2018-06-09T00:07:59.707Z,1.17
2018-06-09T00:10:27.252Z,0.80
2018-06-09T00:12:55.286Z,0.80
2018-06-09T00:15:22.766Z,0.67
2018-06-09T00:17:50.232Z,0.50
2018-06-09T00:20:17.929Z,0.60
2018-06-09T00:22:45.327Z,0.80
2018-06-09T00:25:12.803Z,0.70
2018-06-09T00:27:40.361Z,0.60
2018-06-09T00:30:07.768Z,0.73
2018-06-09T00:32:35.322Z,0.80
2018-06-09T00:35:02.775Z,0.77
2018-06-09T00:37:30.266Z,0.80
2018-06-09T00:39:57.639Z,0.70
2018-06-09T00:42:25.759Z,0.83
2018-06-09T00:44:53.165Z,1.27
2018-06-09T00:47:20.606Z,0.77
2018-06-09T00:49:48.091Z,0.70
2018-06-09T00:52:15.539Z,0.60
2018-06-09T00:54:42.939Z,0.70
2018-06-09T00:57:10.335Z,0.60
2018-06-09T00:59:37.907Z,1.00
2018-06-09T01:02:05.671Z,0.70
2018-06-09T01:04:33.853Z,0.90
2018-06-09T01:07:01.507Z,0.80
2018-06-09T01:09:28.963Z,0.83
2018-06-09T01:11:56.347Z,0.80
2018-06-09T01:14:24.543Z,0.90
2018-06-09T01:16:51.948Z,0.80
2018-06-09T01:19:19.371Z,0.70
2018-06-09T01:21:46.943Z,0.90
2018-06-09T01:24:15.247Z,0.80
2018-06-09T01:26:42.699Z,0.80
2018-06-09T01:29:10.132Z,0.73
2018-06-09T01:31:37.526Z,0.90
2018-06-09T01:34:05.557Z,0.77
2018-06-09T01:36:33.147Z,0.80
2018-06-09T01:39:00.530Z,0.70
2018-06-09T01:41:28.088Z,0.90
2018-06-09T01:43:56.643Z,0.63
2018-06-09T01:46:24.806Z,0.80
2018-06-09T01:48:52.365Z,0.80
2018-06-09T01:51:19.762Z,0.80
2018-06-09T01:53:47.291Z,0.80
2018-06-09T01:56:15.656Z,0.63
2018-06-09T01:58:43.199Z,0.80
2018-06-09T02:01:10.644Z,0.80
2018-06-09T02:03:38.091Z,0.90
2018-06-09T02:06:06.712Z,1.10
2018-06-09T02:08:34.243Z,0.73
2018-06-09T02:11:01.648Z,0.80
2018-06-09T02:13:29.076Z,0.73
2018-06-09T02:15:57.159Z,0.70
2018-06-09T02:18:24.578Z,0.83
2018-06-09T02:20:52.071Z,0.70
2018-06-09T02:23:19.486Z,0.90
2018-06-09T02:25:47.290Z,0.80
2018-06-09T02:28:14.801Z,0.80
2018-06-09T02:30:42.242Z,0.70
2018-06-09T02:33:09.619Z,0.80
2018-06-09T02:35:37.748Z,1.07
2018-06-09T02:38:05.995Z,0.90
2018-06-09T02:40:33.586Z,0.90
2018-06-09T02:43:00.990Z,0.80
2018-06-09T02:45:28.566Z,0.80
2018-06-09T02:47:56.699Z,0.80
2018-06-09T02:50:24.327Z,0.70
2018-06-09T02:52:51.779Z,0.80
2018-06-09T02:55:19.163Z,0.80
2018-06-09T02:57:46.651Z,0.90
2018-06-09T03:00:14.168Z,0.70
2018-06-09T03:02:41.597Z,0.93
2018-06-09T03:05:09.040Z,0.80
2018-06-09T03:07:37.631Z,1.00
2018-06-09T03:10:05.225Z,0.83
2018-06-09T03:12:32.644Z,0.90
2018-06-09T03:15:00.127Z,0.70
2018-06-09T03:17:27.962Z,0.90
2018-06-09T03:19:55.380Z,0.87
2018-06-09T03:22:23.327Z,0.90
2018-06-09T03:24:50.770Z,0.80
2018-06-09T03:27:18.399Z,0.90
2018-06-09T03:29:45.852Z,0.73
2018-06-09T03:32:13.849Z,0.80
2018-06-09T03:34:41.607Z,0.83
2018-06-09T03:37:09.460Z,0.70
2018-06-09T03:39:37.744Z,0.90
2018-06-09T03:42:05.452Z,0.80
2018-06-09T03:44:32.952Z,0.90
2018-06-09T03:47:00.434Z,0.80
2018-06-09T03:49:27.901Z,1.00
2018-06-09T03:51:55.336Z,0.70
2018-06-09T03:54:22.887Z,1.00
2018-06-09T03:56:51.167Z,1.20
2018-06-09T03:59:18.640Z,0.90
2018-06-09T04:01:46.422Z,0.73
2018-06-09T04:04:13.934Z,0.80
2018-06-09T04:06:41.307Z,0.90
2018-06-09T04:09:09.412Z,0.80
2018-06-09T04:11:37.484Z,1.00
2018-06-09T04:14:05.255Z,0.90
2018-06-09T04:16:32.662Z,0.80
2018-06-09T04:19:00.076Z,0.90
2018-06-09T04:21:27.551Z,1.00
2018-06-09T04:23:55.138Z,0.97
2018-06-09T04:26:22.627Z,1.00
2018-06-09T04:28:51.272Z,0.90
2018-06-09T04:31:18.740Z,0.90
2018-06-09T04:33:46.247Z,0.90
2018-06-09T04:36:13.673Z,0.83
2018-06-09T04:38:41.076Z,0.90
2018-06-09T04:41:08.815Z,0.70
2018-06-09T04:43:36.328Z,0.63
2018-06-09T04:46:04.129Z,0.70
2018-06-09T04:48:31.547Z,0.90
2018-06-09T04:50:59.011Z,0.90
2018-06-09T04:53:26.430Z,0.77
2018-06-09T04:55:53.923Z,0.80
2018-06-09T04:58:21.571Z,0.90
2018-06-09T05:00:48.949Z,1.00
2018-06-09T05:03:16.627Z,0.80
2018-06-09T05:05:44.056Z,0.90
2018-06-09T05:08:11.507Z,1.00
2018-06-09T05:10:39.171Z,1.00
2018-06-09T05:13:06.620Z,0.87
2018-06-09T05:15:34.257Z,1.00
2018-06-09T05:18:01.671Z,0.90
2018-06-09T05:20:29.104Z,1.00
2018-06-09T05:22:57.001Z,0.80
2018-06-09T05:25:24.389Z,0.80
2018-06-09T05:27:51.841Z,0.80
2018-06-09T05:30:19.207Z,1.00
2018-06-09T05:32:46.595Z,0.87
2018-06-09T05:35:14.060Z,0.80
2018-06-09T05:37:42.003Z,0.87
2018-06-09T05:40:10.100Z,0.80
2018-06-09T05:42:37.531Z,1.00
2018-06-09T05:45:04.900Z,1.00
2018-06-09T05:47:32.391Z,1.03
2018-06-09T05:49:59.871Z,0.93
2018-06-09T05:52:27.285Z,1.50
2018-06-09T05:54:54.689Z,0.97
2018-06-09T05:57:22.188Z,0.90
2018-06-09T05:59:49.751Z,1.10
2018-06-09T06:02:17.497Z,1.00
2018-06-09T06:04:45.159Z,0.90
2018-06-09T06:07:13.553Z,1.03
2018-06-09T06:09:41.011Z,1.00
2018-06-09T06:12:08.411Z,1.00
2018-06-09T06:14:35.811Z,1.00
2018-06-09T06:17:03.265Z,1.00
2018-06-09T06:19:30.753Z,0.90
2018-06-09T06:21:58.839Z,1.10
2018-06-09T06:24:26.410Z,1.00
2018-06-09T06:26:53.904Z,1.20
2018-06-09T06:29:21.623Z,1.20
2018-06-09T06:31:49.459Z,1.10
2018-06-09T06:34:17.116Z,1.00
2018-06-09T06:36:44.698Z,0.90
2018-06-09T06:39:12.189Z,1.00
2018-06-09T06:41:39.647Z,1.20
2018-06-09T06:44:07.044Z,0.90
2018-06-09T06:46:35.224Z,1.00
2018-06-09T06:49:02.702Z,1.10
2018-06-09T06:51:30.199Z,1.10
2018-06-09T06:53:57.672Z,0.90
2018-06-09T06:56:25.111Z,1.00
2018-06-09T06:58:53.111Z,1.10
2018-06-09T07:01:20.526Z,1.00
2018-06-09T07:03:47.947Z,0.93
2018-06-09T07:06:15.832Z,1.10
2018-06-09T07:08:43.306Z,1.03
2018-06-09T07:11:10.728Z,1.00
2018-06-09T07:13:38.168Z,1.10
2018-06-09T07:16:06.551Z,1.10
2018-06-09T07:18:34.007Z,1.20
2018-06-09T07:21:01.480Z,0.90
2018-06-09T07:23:28.911Z,1.20
2018-06-09T07:25:56.685Z,1.10
2018-06-09T07:28:24.140Z,1.00
2018-06-09T07:30:51.680Z,1.10
2018-06-09T07:33:19.075Z,1.00
2018-06-09T07:35:47.119Z,0.97
2018-06-09T07:38:14.575Z,1.10
2018-06-09T07:40:41.967Z,1.10
2018-06-09T07:43:09.421Z,1.07
2018-06-09T07:45:37.511Z,1.20
2018-06-09T07:48:05.035Z,1.00
2018-06-09T07:50:32.495Z,1.00
2018-06-09T07:52:59.931Z,1.00
2018-06-09T07:55:27.408Z,1.00
2018-06-09T07:57:56.147Z,1.13
2018-06-09T08:00:24.275Z,0.97
2018-06-09T08:02:51.675Z,1.20
2018-06-09T08:05:19.067Z,1.00
2018-06-09T08:07:46.605Z,1.10
2018-06-09T08:10:14.652Z,1.00
2018-06-09T08:12:42.039Z,1.33
2018-06-09T08:15:09.456Z,1.10
2018-06-09T08:17:37.571Z,1.17
2018-06-09T08:20:05.220Z,0.93
2018-06-09T08:22:32.647Z,1.07
2018-06-09T08:25:00.326Z,1.00
2018-06-09T08:27:27.743Z,1.00
2018-06-09T08:29:55.784Z,1.30
2018-06-09T08:32:23.171Z,1.17
2018-06-09T08:34:50.568Z,1.00
2018-06-09T08:37:17.947Z,1.00
2018-06-09T08:39:45.374Z,1.10
2018-06-09T08:42:12.775Z,1.10
2018-06-09T08:44:40.315Z,1.20
2018-06-09T08:47:07.703Z,0.90
2018-06-09T08:49:35.095Z,1.10
2018-06-09T08:52:02.516Z,1.03
2018-06-09T08:54:30.777Z,1.10
2018-06-09T08:56:58.263Z,1.10
2018-06-09T08:59:25.643Z,0.97
2018-06-09T09:01:53.127Z,1.20
2018-06-09T09:04:20.605Z,1.07
2018-06-09T09:06:47.996Z,1.20
2018-06-09T09:09:16.112Z,1.17
2018-06-09T09:11:43.515Z,1.40
2018-06-09T09:14:11.028Z,1.30
2018-06-09T09:16:38.520Z,1.30
2018-06-09T09:19:05.942Z,1.40
2018-06-09T09:21:33.480Z,1.35
2018-06-09T09:24:00.883Z,1.40
2018-06-09T09:26:29.071Z,1.47
2018-06-09T09:28:57.043Z,1.70
2018-06-09T09:31:24.504Z,1.50
2018-06-09T09:33:51.949Z,1.47
2018-06-09T09:36:19.445Z,1.55
2018-06-09T09:38:47.134Z,1.55
2018-06-09T09:41:14.619Z,1.40
2018-06-09T09:43:41.995Z,1.50
2018-06-09T09:46:09.371Z,1.60
2018-06-09T09:48:36.751Z,1.40
2018-06-09T09:51:04.129Z,1.50
2018-06-09T09:53:31.595Z,1.40
2018-06-09T09:55:59.043Z,1.50
2018-06-09T09:58:26.479Z,1.70
2018-06-09T10:00:53.959Z,1.47
2018-06-09T10:03:21.400Z,1.70
2018-06-09T10:05:48.887Z,1.57
2018-06-09T10:08:16.313Z,1.57
2018-06-09T10:10:44.375Z,1.60
2018-06-09T10:13:11.836Z,1.40
2018-06-09T10:15:39.223Z,1.63
2018-06-09T10:18:06.791Z,1.50
2018-06-09T10:20:34.206Z,1.53
2018-06-09T10:23:01.667Z,1.50
2018-06-09T10:25:29.123Z,1.67
2018-06-09T10:27:57.163Z,1.50
2018-06-09T10:30:24.713Z,1.60
2018-06-09T10:32:52.282Z,1.37
2018-06-09T10:35:19.731Z,1.50
2018-06-09T10:37:47.145Z,1.45
2018-06-09T10:40:15.409Z,1.62
2018-06-09T10:42:44.091Z,1.87
2018-06-09T10:45:11.576Z,1.45
2018-06-09T10:47:39.356Z,1.85
2018-06-09T10:50:06.799Z,1.40
2018-06-09T10:52:34.204Z,1.82
2018-06-09T10:55:01.702Z,1.60
2018-06-09T10:57:29.193Z,1.80
2018-06-09T10:59:56.629Z,1.90
2018-06-09T11:02:24.024Z,1.70
2018-06-09T11:04:51.507Z,1.85
2018-06-09T11:07:18.967Z,1.60
2018-06-09T11:09:46.408Z,1.60
2018-06-09T11:12:14.523Z,1.57
2018-06-09T11:14:41.971Z,1.62
2018-06-09T11:17:09.385Z,1.80
2018-06-09T11:19:36.916Z,1.60
2018-06-09T11:22:04.367Z,1.50
2018-06-09T11:24:32.428Z,1.47
2018-06-09T11:27:00.202Z,1.70
2018-06-09T11:29:27.615Z,1.85
2018-06-09T11:31:55.072Z,1.70
2018-06-09T11:34:22.531Z,1.62
2018-06-09T11:36:49.999Z,1.40
2018-06-09T11:39:18.069Z,1.70
2018-06-09T11:41:46.464Z,1.80
2018-06-09T11:44:13.854Z,1.50
2018-06-09T11:46:41.352Z,1.90
2018-06-09T11:49:08.873Z,1.70
2018-06-09T11:51:36.279Z,1.70
2018-06-09T11:54:03.733Z,1.75
2018-06-09T11:56:31.494Z,1.82
2018-06-09T11:58:59.640Z,1.70
2018-06-09T12:01:27.347Z,1.40
2018-06-09T12:03:54.786Z,1.70
2018-06-09T12:06:22.243Z,1.80
2018-06-09T12:08:50.319Z,1.57
2018-06-09T12:11:17.769Z,1.70
2018-06-09T12:13:45.233Z,1.60
2018-06-09T12:16:12.675Z,1.50
2018-06-09T12:18:40.526Z,1.57
2018-06-09T12:21:08.503Z,1.70
2018-06-09T12:23:35.963Z,1.50
2018-06-09T12:26:04.206Z,1.70
2018-06-09T12:28:31.803Z,1.60
2018-06-09T12:30:59.689Z,1.60
2018-06-09T12:33:27.139Z,1.80
2018-06-09T12:35:54.523Z,1.57
2018-06-09T12:38:22.639Z,1.70
2018-06-09T12:40:50.038Z,1.90
2018-06-09T12:43:17.553Z,1.40
2018-06-09T12:45:45.027Z,1.93
2018-06-09T12:48:12.702Z,1.70
2018-06-09T12:50:40.143Z,1.80
2018-06-09T12:53:07.539Z,1.53
2018-06-09T12:55:35.495Z,1.57
2018-06-09T12:58:03.138Z,1.60
2018-06-09T13:00:30.612Z,1.60
2018-06-09T13:02:58.684Z,1.50
2018-06-09T13:05:26.052Z,1.53
2018-06-09T13:07:53.423Z,1.97
2018-06-09T13:10:21.041Z,1.67
2018-06-09T13:12:48.517Z,1.60
2018-06-09T13:15:15.939Z,1.70
2018-06-09T13:17:43.311Z,1.50
2018-06-09T13:20:10.717Z,1.60
2018-06-09T13:22:38.107Z,1.77
2018-06-09T13:25:05.860Z,1.60
2018-06-09T13:27:34.645Z,1.60
2018-06-09T13:30:02.032Z,1.67
2018-06-09T13:32:29.765Z,1.70
2018-06-09T13:34:57.141Z,1.50
2018-06-09T13:37:24.527Z,1.70
2018-06-09T13:39:52.045Z,1.63
2018-06-09T13:42:19.512Z,2.00
2018-06-09T13:44:46.919Z,1.80
2018-06-09T13:47:14.308Z,1.80
2018-06-09T13:49:41.965Z,1.73
2018-06-09T13:52:09.373Z,1.83
2018-06-09T13:54:36.855Z,1.43
2018-06-09T13:57:04.870Z,1.70
2018-06-09T13:59:32.938Z,1.60
2018-06-09T14:02:00.360Z,1.70
2018-06-09T14:04:27.743Z,1.70
2018-06-09T14:06:56.103Z,1.73
2018-06-09T14:09:23.474Z,1.73
2018-06-09T14:11:50.929Z,1.70
2018-06-09T14:14:18.336Z,1.73
2018-06-09T14:16:46.145Z,1.77
2018-06-09T14:19:13.909Z,1.53
2018-06-09T14:21:41.579Z,1.60
2018-06-09T14:24:08.963Z,1.60
2018-06-09T14:26:36.523Z,1.60
2018-06-09T14:29:03.939Z,1.83
2018-06-09T14:31:31.323Z,1.37
2018-06-09T14:33:58.699Z,1.90
2018-06-09T14:36:26.333Z,1.80
2018-06-09T14:38:53.808Z,1.43
2018-06-09T14:41:21.246Z,1.50
2018-06-09T14:43:48.704Z,1.50
2018-06-09T14:46:16.857Z,1.80
2018-06-09T14:48:44.243Z,1.67
2018-06-09T14:51:11.707Z,1.80
2018-06-09T14:53:39.149Z,1.60
2018-06-09T14:56:06.591Z,1.80
2018-06-09T14:58:34.064Z,2.00
2018-06-09T15:01:01.446Z,1.63
2018-06-09T15:03:28.882Z,1.70
2018-06-09T15:05:56.432Z,1.70
2018-06-09T15:08:23.887Z,1.60
2018-06-09T15:10:51.427Z,1.63
2018-06-09T15:13:19.500Z,1.70
2018-06-09T15:15:46.956Z,1.30
2018-06-09T15:18:14.339Z,1.73
2018-06-09T15:20:41.735Z,1.70
2018-06-09T15:23:09.243Z,1.50
2018-06-09T15:25:36.611Z,1.77
2018-06-09T15:28:04.226Z,1.63
2018-06-09T15:30:31.619Z,1.70
2018-06-09T15:32:59.076Z,1.77
2018-06-09T15:35:26.459Z,2.00
2018-06-09T15:37:53.986Z,1.70
2018-06-09T15:40:21.504Z,1.87
2018-06-09T15:42:49.883Z,1.80
2018-06-09T15:45:17.327Z,1.70
2018-06-09T15:47:44.735Z,1.60
2018-06-09T15:50:12.191Z,1.77
2018-06-09T15:52:39.726Z,1.67
2018-06-09T15:55:07.144Z,1.60
2018-06-09T15:57:34.528Z,1.67
2018-06-09T16:00:02.656Z,1.47
2018-06-09T16:02:30.071Z,1.77
2018-06-09T16:04:57.579Z,1.50
2018-06-09T16:07:25.015Z,1.50
2018-06-09T16:09:52.463Z,1.60
2018-06-09T16:12:20.747Z,1.63
2018-06-09T16:14:48.256Z,1.60
2018-06-09T16:17:16.088Z,1.83
2018-06-09T16:19:43.528Z,1.60
2018-06-09T16:22:11.301Z,1.90
2018-06-09T16:24:38.766Z,1.90
2018-06-09T16:27:06.168Z,2.67
2018-06-09T16:29:33.715Z,1.90
2018-06-09T16:32:01.106Z,2.17
2018-06-09T16:34:28.577Z,1.80
2018-06-09T16:36:56.563Z,1.87
2018-06-09T16:39:25.266Z,1.60
2018-06-09T16:41:52.723Z,1.50
2018-06-09T16:44:20.771Z,1.60
2018-06-09T16:46:48.647Z,1.60
2018-06-09T16:49:16.083Z,1.67
2018-06-09T16:51:44.397Z,1.67
2018-06-09T16:54:11.819Z,1.40
2018-06-09T16:56:39.976Z,1.50
2018-06-09T16:59:07.448Z,1.70
2018-06-09T17:01:34.861Z,1.50
2018-06-09T17:04:03.008Z,1.70
2018-06-09T17:06:31.391Z,1.70
2018-06-09T17:08:59.692Z,2.23
2018-06-09T17:11:28.059Z,3.70
2018-06-09T17:13:55.467Z,2.60
2018-06-09T17:16:22.843Z,2.93
2018-06-09T17:18:50.519Z,1.90
2018-06-09T17:21:18.232Z,1.75
2018-06-09T17:23:45.627Z,1.60
2018-06-09T17:26:13.071Z,1.70
2018-06-09T17:28:41.235Z,1.70
2018-06-09T17:31:09.323Z,1.57
2018-06-09T17:33:37.083Z,2.40
2018-06-09T17:36:04.527Z,1.70
2018-06-09T17:38:31.996Z,1.60
2018-06-09T17:41:00.072Z,1.90
2018-06-09T17:43:27.526Z,1.87
2018-06-09T17:45:54.972Z,1.82
2018-06-09T17:48:22.384Z,1.65
2018-06-09T17:50:49.907Z,1.75
2018-06-09T17:53:17.333Z,1.55
2018-06-09T17:55:44.729Z,1.60
2018-06-09T17:58:12.257Z,1.67
2018-06-09T18:00:39.692Z,1.80
2018-06-09T18:03:07.103Z,1.60
2018-06-09T18:05:34.620Z,1.50
2018-06-09T18:08:02.383Z,1.83
2018-06-09T18:10:29.840Z,1.80
2018-06-09T18:12:57.299Z,1.60
2018-06-09T18:15:24.760Z,1.63
2018-06-09T18:17:52.238Z,1.90
2018-06-09T18:20:19.664Z,1.67
2018-06-09T18:22:47.121Z,1.70
2018-06-09T18:25:14.538Z,1.67
2018-06-09T18:27:41.905Z,1.70
2018-06-09T18:30:10.059Z,1.50
2018-06-09T18:32:37.579Z,1.60
2018-06-09T18:35:05.023Z,1.70
2018-06-09T18:37:32.431Z,1.70
2018-06-09T18:40:00.574Z,1.63
2018-06-09T18:42:27.955Z,1.57
2018-06-09T18:44:55.467Z,1.70
2018-06-09T18:47:23.687Z,1.60
2018-06-09T18:49:51.339Z,1.83
2018-06-09T18:52:18.737Z,1.93
2018-06-09T18:54:46.164Z,1.97
2018-06-09T18:57:13.995Z,1.80
2018-06-09T18:59:41.401Z,1.77
2018-06-09T19:02:08.791Z,1.60
2018-06-09T19:04:37.012Z,1.60
2018-06-09T19:07:04.765Z,1.60
2018-06-09T19:09:32.848Z,1.60
2018-06-09T19:12:00.347Z,1.73
2018-06-09T19:14:27.731Z,1.50
2018-06-09T19:16:55.135Z,1.77
2018-06-09T19:19:22.619Z,1.50
2018-06-09T19:21:50.181Z,1.47
2018-06-09T19:24:17.548Z,1.80
2018-06-09T19:26:44.970Z,1.73
2018-06-09T19:29:12.474Z,1.60
2018-06-09T19:31:39.972Z,1.50
2018-06-09T19:34:07.397Z,2.07
2018-06-09T19:36:34.862Z,1.40
2018-06-09T19:39:02.316Z,1.50
2018-06-09T19:41:29.747Z,1.63
2018-06-09T19:43:57.229Z,1.50
2018-06-09T19:46:24.633Z,1.80
2018-06-09T19:48:52.131Z,1.60
2018-06-09T19:51:19.530Z,1.30
2018-06-09T19:53:46.977Z,1.53
2018-06-09T19:56:14.419Z,1.30
2018-06-09T19:58:41.855Z,1.40
2018-06-09T20:01:09.278Z,1.37
2018-06-09T20:03:36.871Z,1.40
2018-06-09T20:06:04.263Z,1.40
2018-06-09T20:08:31.699Z,1.10
2018-06-09T20:10:59.685Z,1.27
2018-06-09T20:13:27.311Z,1.20
2018-06-09T20:15:55.661Z,1.40
2018-06-09T20:18:23.133Z,1.20
2018-06-09T20:20:50.556Z,1.30
2018-06-09T20:23:18.047Z,1.20
2018-06-09T20:25:45.592Z,1.50
2018-06-09T20:28:12.985Z,1.40
2018-06-09T20:30:40.375Z,1.33
2018-06-09T20:33:07.915Z,1.43
2018-06-09T20:35:37.569Z,1.30
2018-06-09T20:38:05.252Z,1.30
2018-06-09T20:40:32.672Z,1.43
2018-06-09T20:43:00.126Z,1.70
2018-06-09T20:45:27.641Z,1.30
2018-06-09T20:47:55.108Z,1.47
2018-06-09T20:50:22.547Z,1.20
2018-06-09T20:52:50.009Z,1.30
2018-06-09T20:55:17.435Z,1.13
2018-06-09T20:57:44.951Z,1.30
2018-06-09T21:00:12.328Z,1.47
2018-06-09T21:02:39.775Z,1.40
2018-06-09T21:05:07.291Z,1.40
2018-06-09T21:07:34.843Z,1.50
2018-06-09T21:10:03.241Z,3.77
2018-06-09T21:12:30.685Z,1.50
2018-06-09T21:14:58.349Z,1.60
2018-06-09T21:17:26.184Z,1.40
2018-06-09T21:19:54.191Z,1.50
2018-06-09T21:22:21.615Z,1.40
2018-06-09T21:24:49.035Z,1.37
2018-06-09T21:27:21.775Z,1.50
2018-06-09T21:29:55.294Z,1.57
2018-06-09T21:32:27.659Z,1.43
2018-06-09T21:35:03.508Z,1.40
2018-06-09T21:37:35.414Z,1.67
2018-06-09T21:40:05.851Z,1.50
2018-06-09T21:42:34.141Z,1.70
2018-06-09T21:45:07.089Z,1.50
2018-06-09T21:47:34.657Z,1.50
2018-06-09T21:50:02.223Z,1.60
2018-06-09T21:52:29.628Z,1.40
2018-06-09T21:54:57.891Z,1.60
2018-06-09T21:57:25.998Z,1.40
2018-06-09T21:59:53.384Z,1.40
2018-06-09T22:02:35.008Z,1.50
2018-06-09T22:05:02.712Z,1.40
2018-06-09T22:07:30.784Z,1.60
2018-06-09T22:09:58.347Z,1.70
2018-06-09T22:12:26.392Z,1.60
2018-06-09T22:14:53.863Z,1.60
2018-06-09T22:17:21.823Z,1.40
2018-06-09T22:19:49.238Z,1.57
2018-06-09T22:22:16.897Z,1.40
2018-06-09T22:24:44.291Z,1.60
2018-06-09T22:27:11.723Z,1.50
2018-06-09T22:29:39.191Z,1.37
2018-06-09T22:32:06.591Z,1.40
2018-06-09T22:34:34.188Z,1.40
2018-06-09T22:37:01.567Z,1.40
2018-06-09T22:39:29.015Z,1.40
2018-06-09T22:41:56.553Z,1.67
2018-06-09T22:44:24.010Z,1.50
2018-06-09T22:46:51.428Z,1.57
2018-06-09T22:49:19.633Z,1.50
2018-06-09T22:51:47.312Z,1.43
2018-06-09T22:54:14.735Z,1.50
2018-06-09T22:56:42.143Z,1.40
2018-06-09T22:59:09.507Z,1.50
2018-06-09T23:01:37.047Z,1.50
2018-06-09T23:04:04.435Z,1.60
2018-06-09T23:06:31.987Z,1.50
2018-06-09T23:08:59.367Z,1.47
2018-06-09T23:12:56.029Z,1.53
2018-06-09T23:15:23.422Z,1.60
2018-06-09T23:17:51.551Z,1.63
2018-06-09T23:20:18.947Z,1.67
2018-06-09T23:22:47.036Z,1.40
2018-06-09T23:25:14.407Z,1.50
2018-06-09T23:27:41.936Z,1.63
2018-06-09T23:30:09.375Z,2.47
2018-06-09T23:32:36.759Z,2.13
2018-06-09T23:35:04.155Z,2.03
2018-06-09T23:37:31.768Z,1.73
2018-06-09T23:39:59.160Z,1.53
2018-06-09T23:42:27.304Z,2.10
2018-06-09T23:44:54.747Z,1.90
2018-06-09T23:47:22.143Z,1.60
2018-06-09T23:49:49.587Z,1.80
2018-06-09T23:52:17.146Z,1.70
2018-06-09T23:54:44.557Z,1.90
2018-06-09T23:57:12.427Z,1.60
2018-06-09T23:59:40.119Z,1.63
